sensor_id;sensor_type;location;lat;lon;timestamp;P1;durP1;ratioP1;P2;durP2;ratioP2
70199;SDS011;57587;55.688;37.600;2023-12-20T00:01:08;3.88;;;2.97;;
70199;SDS011;57587;55.688;37.600;2023-12-20T00:03:35;4.00;;;2.97;;
70199;SDS011;57587;55.688;37.600;2023-12-20T00:06:09;4.18;;;2.78;;
70199;SDS011;57587;55.688;37.600;2023-12-20T00:08:37;5.10;;;2.73;;
70199;SDS011;57587;55.688;37.600;2023-12-20T00:11:04;4.38;;;3.10;;
70199;SDS011;57587;55.688;37.600;2023-12-20T00:13:31;4.93;;;3.13;;
70199;SDS011;57587;55.688;37.600;2023-12-20T00:15:58;3.95;;;2.80;;
70199;SDS011;57587;55.688;37.600;2023-12-20T00:18:26;5.60;;;3.10;;
70199;SDS011;57587;55.688;37.600;2023-12-20T00:20:53;4.50;;;2.60;;
70199;SDS011;57587;55.688;37.600;2023-12-20T00:23:20;3.75;;;2.50;;
70199;SDS011;57587;55.688;37.600;2023-12-20T00:25:47;4.55;;;3.00;;
70199;SDS011;57587;55.688;37.600;2023-12-20T00:28:15;4.38;;;2.80;;
70199;SDS011;57587;55.688;37.600;2023-12-20T00:30:42;5.32;;;2.90;;
70199;SDS011;57587;55.688;37.600;2023-12-20T00:33:09;5.17;;;3.10;;
70199;SDS011;57587;55.688;37.600;2023-12-20T00:35:36;3.83;;;2.83;;
70199;SDS011;57587;55.688;37.600;2023-12-20T00:38:03;3.95;;;3.00;;
70199;SDS011;57587;55.688;37.600;2023-12-20T00:40:31;4.53;;;2.88;;
70199;SDS011;57587;55.688;37.600;2023-12-20T00:43:00;4.47;;;2.80;;
70199;SDS011;57587;55.688;37.600;2023-12-20T00:45:27;4.87;;;3.10;;
70199;SDS011;57587;55.688;37.600;2023-12-20T00:47:54;4.50;;;3.05;;
70199;SDS011;57587;55.688;37.600;2023-12-20T00:50:21;4.13;;;3.13;;
70199;SDS011;57587;55.688;37.600;2023-12-20T00:52:52;5.88;;;3.53;;
70199;SDS011;57587;55.688;37.600;2023-12-20T00:55:21;4.78;;;3.08;;
70199;SDS011;57587;55.688;37.600;2023-12-20T00:57:48;5.70;;;3.63;;
70199;SDS011;57587;55.688;37.600;2023-12-20T01:00:16;5.30;;;3.40;;
70199;SDS011;57587;55.688;37.600;2023-12-20T01:02:44;4.93;;;3.47;;
70199;SDS011;57587;55.688;37.600;2023-12-20T01:05:13;4.72;;;3.15;;
70199;SDS011;57587;55.688;37.600;2023-12-20T01:07:40;4.07;;;3.28;;
70199;SDS011;57587;55.688;37.600;2023-12-20T01:10:08;6.20;;;3.60;;
70199;SDS011;57587;55.688;37.600;2023-12-20T01:12:36;4.78;;;3.40;;
70199;SDS011;57587;55.688;37.600;2023-12-20T01:15:04;5.43;;;3.58;;
70199;SDS011;57587;55.688;37.600;2023-12-20T01:17:31;3.97;;;3.15;;
70199;SDS011;57587;55.688;37.600;2023-12-20T01:19:58;5.35;;;3.45;;
70199;SDS011;57587;55.688;37.600;2023-12-20T01:22:26;5.90;;;3.60;;
70199;SDS011;57587;55.688;37.600;2023-12-20T01:24:53;5.03;;;3.83;;
70199;SDS011;57587;55.688;37.600;2023-12-20T01:27:20;4.72;;;3.33;;
70199;SDS011;57587;55.688;37.600;2023-12-20T01:29:47;5.93;;;3.55;;
70199;SDS011;57587;55.688;37.600;2023-12-20T01:32:15;6.43;;;3.58;;
70199;SDS011;57587;55.688;37.600;2023-12-20T01:34:42;5.10;;;3.43;;
70199;SDS011;57587;55.688;37.600;2023-12-20T01:37:10;6.13;;;2.92;;
70199;SDS011;57587;55.688;37.600;2023-12-20T01:39:37;6.10;;;2.67;;
70199;SDS011;57587;55.688;37.600;2023-12-20T01:42:04;5.55;;;3.10;;
70199;SDS011;57587;55.688;37.600;2023-12-20T01:44:31;5.10;;;3.00;;
70199;SDS011;57587;55.688;37.600;2023-12-20T01:46:59;5.10;;;2.80;;
70199;SDS011;57587;55.688;37.600;2023-12-20T01:49:26;3.78;;;2.72;;
70199;SDS011;57587;55.688;37.600;2023-12-20T01:51:54;5.28;;;2.53;;
70199;SDS011;57587;55.688;37.600;2023-12-20T01:54:22;3.70;;;2.22;;
70199;SDS011;57587;55.688;37.600;2023-12-20T01:56:49;4.55;;;2.50;;
70199;SDS011;57587;55.688;37.600;2023-12-20T01:59:17;5.33;;;2.50;;
70199;SDS011;57587;55.688;37.600;2023-12-20T02:01:47;3.78;;;2.65;;
70199;SDS011;57587;55.688;37.600;2023-12-20T02:04:14;6.15;;;3.05;;
70199;SDS011;57587;55.688;37.600;2023-12-20T02:06:42;4.90;;;3.00;;
70199;SDS011;57587;55.688;37.600;2023-12-20T02:09:13;4.13;;;2.38;;
70199;SDS011;57587;55.688;37.600;2023-12-20T02:11:41;3.17;;;2.53;;
70199;SDS011;57587;55.688;37.600;2023-12-20T02:14:09;4.45;;;2.80;;
70199;SDS011;57587;55.688;37.600;2023-12-20T02:16:36;4.13;;;2.78;;
70199;SDS011;57587;55.688;37.600;2023-12-20T02:19:04;3.50;;;2.50;;
70199;SDS011;57587;55.688;37.600;2023-12-20T02:21:41;5.95;;;2.40;;
70199;SDS011;57587;55.688;37.600;2023-12-20T02:24:08;3.43;;;2.03;;
70199;SDS011;57587;55.688;37.600;2023-12-20T02:26:36;3.95;;;2.22;;
70199;SDS011;57587;55.688;37.600;2023-12-20T02:29:03;4.05;;;2.40;;
70199;SDS011;57587;55.688;37.600;2023-12-20T02:31:30;4.28;;;2.47;;
70199;SDS011;57587;55.688;37.600;2023-12-20T02:33:57;3.05;;;2.10;;
70199;SDS011;57587;55.688;37.600;2023-12-20T02:36:24;3.13;;;2.50;;
70199;SDS011;57587;55.688;37.600;2023-12-20T02:38:51;4.80;;;2.10;;
70199;SDS011;57587;55.688;37.600;2023-12-20T02:41:19;3.22;;;2.28;;
70199;SDS011;57587;55.688;37.600;2023-12-20T02:43:46;2.92;;;2.60;;
70199;SDS011;57587;55.688;37.600;2023-12-20T02:46:13;4.20;;;2.83;;
70199;SDS011;57587;55.688;37.600;2023-12-20T02:48:42;5.00;;;2.57;;
70199;SDS011;57587;55.688;37.600;2023-12-20T02:51:10;3.92;;;2.85;;
70199;SDS011;57587;55.688;37.600;2023-12-20T02:53:37;6.60;;;2.95;;
70199;SDS011;57587;55.688;37.600;2023-12-20T02:56:04;4.50;;;2.60;;
70199;SDS011;57587;55.688;37.600;2023-12-20T02:58:32;5.10;;;3.28;;
70199;SDS011;57587;55.688;37.600;2023-12-20T03:00:59;3.60;;;2.80;;
70199;SDS011;57587;55.688;37.600;2023-12-20T03:03:26;4.80;;;3.58;;
70199;SDS011;57587;55.688;37.600;2023-12-20T03:05:53;4.95;;;3.38;;
70199;SDS011;57587;55.688;37.600;2023-12-20T03:08:20;4.88;;;3.42;;
70199;SDS011;57587;55.688;37.600;2023-12-20T03:10:48;5.32;;;3.47;;
70199;SDS011;57587;55.688;37.600;2023-12-20T03:13:15;5.73;;;3.50;;
70199;SDS011;57587;55.688;37.600;2023-12-20T03:15:42;5.65;;;3.50;;
70199;SDS011;57587;55.688;37.600;2023-12-20T03:18:09;4.55;;;3.53;;
70199;SDS011;57587;55.688;37.600;2023-12-20T03:20:36;4.95;;;3.10;;
70199;SDS011;57587;55.688;37.600;2023-12-20T03:23:04;4.82;;;3.22;;
70199;SDS011;57587;55.688;37.600;2023-12-20T03:25:31;4.97;;;3.17;;
70199;SDS011;57587;55.688;37.600;2023-12-20T03:27:58;6.13;;;3.78;;
70199;SDS011;57587;55.688;37.600;2023-12-20T03:30:27;4.07;;;2.92;;
70199;SDS011;57587;55.688;37.600;2023-12-20T03:32:54;3.90;;;3.00;;
70199;SDS011;57587;55.688;37.600;2023-12-20T03:35:21;4.57;;;3.13;;
70199;SDS011;57587;55.688;37.600;2023-12-20T03:37:49;3.97;;;3.30;;
70199;SDS011;57587;55.688;37.600;2023-12-20T03:40:16;5.57;;;3.42;;
70199;SDS011;57587;55.688;37.600;2023-12-20T03:42:44;5.32;;;2.90;;
70199;SDS011;57587;55.688;37.600;2023-12-20T03:45:12;6.82;;;4.18;;
70199;SDS011;57587;55.688;37.600;2023-12-20T03:47:39;7.10;;;3.30;;
70199;SDS011;57587;55.688;37.600;2023-12-20T03:50:06;5.70;;;3.80;;
70199;SDS011;57587;55.688;37.600;2023-12-20T03:52:33;8.27;;;4.30;;
70199;SDS011;57587;55.688;37.600;2023-12-20T03:55:00;5.80;;;3.20;;
70199;SDS011;57587;55.688;37.600;2023-12-20T03:57:29;6.18;;;3.40;;
70199;SDS011;57587;55.688;37.600;2023-12-20T03:59:56;8.55;;;3.55;;
70199;SDS011;57587;55.688;37.600;2023-12-20T04:02:24;6.03;;;3.80;;
70199;SDS011;57587;55.688;37.600;2023-12-20T04:04:51;6.60;;;4.25;;
70199;SDS011;57587;55.688;37.600;2023-12-20T04:07:19;7.38;;;4.20;;
70199;SDS011;57587;55.688;37.600;2023-12-20T04:09:47;7.53;;;4.53;;
70199;SDS011;57587;55.688;37.600;2023-12-20T04:12:14;6.70;;;3.75;;
70199;SDS011;57587;55.688;37.600;2023-12-20T04:14:42;4.80;;;4.00;;
70199;SDS011;57587;55.688;37.600;2023-12-20T04:17:09;8.32;;;3.65;;
70199;SDS011;57587;55.688;37.600;2023-12-20T04:19:36;4.90;;;4.00;;
70199;SDS011;57587;55.688;37.600;2023-12-20T04:22:03;7.93;;;3.70;;
70199;SDS011;57587;55.688;37.600;2023-12-20T04:24:30;6.22;;;4.22;;
70199;SDS011;57587;55.688;37.600;2023-12-20T04:26:58;5.77;;;3.97;;
70199;SDS011;57587;55.688;37.600;2023-12-20T04:29:25;9.82;;;4.55;;
70199;SDS011;57587;55.688;37.600;2023-12-20T04:31:52;6.28;;;4.85;;
70199;SDS011;57587;55.688;37.600;2023-12-20T04:34:20;5.80;;;4.13;;
70199;SDS011;57587;55.688;37.600;2023-12-20T04:36:47;8.32;;;4.60;;
70199;SDS011;57587;55.688;37.600;2023-12-20T04:39:14;8.03;;;4.37;;
70199;SDS011;57587;55.688;37.600;2023-12-20T04:41:42;6.18;;;4.68;;
70199;SDS011;57587;55.688;37.600;2023-12-20T04:44:09;11.38;;;4.63;;
70199;SDS011;57587;55.688;37.600;2023-12-20T04:46:36;8.18;;;3.90;;
70199;SDS011;57587;55.688;37.600;2023-12-20T04:49:03;7.05;;;4.57;;
70199;SDS011;57587;55.688;37.600;2023-12-20T04:51:33;6.97;;;4.67;;
70199;SDS011;57587;55.688;37.600;2023-12-20T04:54:01;7.05;;;3.65;;
70199;SDS011;57587;55.688;37.600;2023-12-20T04:56:29;6.75;;;4.57;;
70199;SDS011;57587;55.688;37.600;2023-12-20T04:58:56;6.57;;;3.83;;
70199;SDS011;57587;55.688;37.600;2023-12-20T05:01:23;7.35;;;4.15;;
70199;SDS011;57587;55.688;37.600;2023-12-20T05:03:50;6.47;;;3.90;;
70199;SDS011;57587;55.688;37.600;2023-12-20T05:06:18;6.85;;;4.65;;
70199;SDS011;57587;55.688;37.600;2023-12-20T05:08:45;7.20;;;3.97;;
70199;SDS011;57587;55.688;37.600;2023-12-20T05:11:12;6.43;;;3.60;;
70199;SDS011;57587;55.688;37.600;2023-12-20T05:13:41;5.30;;;3.67;;
70199;SDS011;57587;55.688;37.600;2023-12-20T05:16:16;5.73;;;3.57;;
70199;SDS011;57587;55.688;37.600;2023-12-20T05:18:46;7.75;;;3.22;;
70199;SDS011;57587;55.688;37.600;2023-12-20T05:21:15;4.88;;;3.75;;
70199;SDS011;57587;55.688;37.600;2023-12-20T05:23:42;5.82;;;3.50;;
70199;SDS011;57587;55.688;37.600;2023-12-20T05:26:09;6.03;;;3.30;;
70199;SDS011;57587;55.688;37.600;2023-12-20T05:28:36;7.00;;;3.77;;
70199;SDS011;57587;55.688;37.600;2023-12-20T05:31:03;7.32;;;3.28;;
70199;SDS011;57587;55.688;37.600;2023-12-20T05:33:30;6.03;;;4.18;;
70199;SDS011;57587;55.688;37.600;2023-12-20T05:35:58;5.70;;;3.50;;
70199;SDS011;57587;55.688;37.600;2023-12-20T05:38:25;6.25;;;3.70;;
70199;SDS011;57587;55.688;37.600;2023-12-20T05:40:52;6.93;;;3.73;;
70199;SDS011;57587;55.688;37.600;2023-12-20T05:43:19;7.30;;;3.70;;
70199;SDS011;57587;55.688;37.600;2023-12-20T05:45:46;6.70;;;3.90;;
70199;SDS011;57587;55.688;37.600;2023-12-20T05:48:13;5.05;;;3.35;;
70199;SDS011;57587;55.688;37.600;2023-12-20T05:50:41;6.75;;;3.95;;
70199;SDS011;57587;55.688;37.600;2023-12-20T05:53:08;8.93;;;4.30;;
70199;SDS011;57587;55.688;37.600;2023-12-20T05:55:35;5.93;;;3.83;;
70199;SDS011;57587;55.688;37.600;2023-12-20T05:58:02;8.52;;;4.68;;
70199;SDS011;57587;55.688;37.600;2023-12-20T06:00:30;5.80;;;3.90;;
70199;SDS011;57587;55.688;37.600;2023-12-20T06:02:57;7.80;;;4.38;;
70199;SDS011;57587;55.688;37.600;2023-12-20T06:05:24;7.00;;;4.23;;
70199;SDS011;57587;55.688;37.600;2023-12-20T06:07:52;5.65;;;4.05;;
70199;SDS011;57587;55.688;37.600;2023-12-20T06:10:19;8.48;;;4.03;;
70199;SDS011;57587;55.688;37.600;2023-12-20T06:12:46;6.85;;;3.88;;
70199;SDS011;57587;55.688;37.600;2023-12-20T06:15:17;8.05;;;3.85;;
70199;SDS011;57587;55.688;37.600;2023-12-20T06:17:44;9.23;;;4.37;;
70199;SDS011;57587;55.688;37.600;2023-12-20T06:20:11;7.07;;;4.10;;
70199;SDS011;57587;55.688;37.600;2023-12-20T06:22:40;6.55;;;4.25;;
70199;SDS011;57587;55.688;37.600;2023-12-20T06:25:07;6.80;;;4.07;;
70199;SDS011;57587;55.688;37.600;2023-12-20T06:27:35;6.38;;;4.20;;
70199;SDS011;57587;55.688;37.600;2023-12-20T06:30:02;8.70;;;4.30;;
70199;SDS011;57587;55.688;37.600;2023-12-20T06:32:31;7.05;;;4.00;;
70199;SDS011;57587;55.688;37.600;2023-12-20T06:34:58;5.70;;;3.70;;
70199;SDS011;57587;55.688;37.600;2023-12-20T06:37:25;9.90;;;4.35;;
70199;SDS011;57587;55.688;37.600;2023-12-20T06:39:52;6.43;;;3.72;;
70199;SDS011;57587;55.688;37.600;2023-12-20T06:42:19;5.93;;;3.77;;
70199;SDS011;57587;55.688;37.600;2023-12-20T06:44:47;7.95;;;3.85;;
70199;SDS011;57587;55.688;37.600;2023-12-20T06:47:14;5.30;;;4.32;;
70199;SDS011;57587;55.688;37.600;2023-12-20T06:49:41;8.43;;;3.80;;
70199;SDS011;57587;55.688;37.600;2023-12-20T06:52:08;8.00;;;4.60;;
70199;SDS011;57587;55.688;37.600;2023-12-20T06:54:35;6.80;;;4.40;;
70199;SDS011;57587;55.688;37.600;2023-12-20T06:57:03;7.10;;;4.10;;
70199;SDS011;57587;55.688;37.600;2023-12-20T06:59:31;6.32;;;3.88;;
70199;SDS011;57587;55.688;37.600;2023-12-20T07:01:58;5.72;;;3.92;;
70199;SDS011;57587;55.688;37.600;2023-12-20T07:04:25;6.30;;;4.10;;
70199;SDS011;57587;55.688;37.600;2023-12-20T07:06:53;5.10;;;3.73;;
70199;SDS011;57587;55.688;37.600;2023-12-20T07:09:24;7.55;;;3.70;;
70199;SDS011;57587;55.688;37.600;2023-12-20T07:11:52;6.18;;;4.30;;
70199;SDS011;57587;55.688;37.600;2023-12-20T07:14:20;6.13;;;3.70;;
70199;SDS011;57587;55.688;37.600;2023-12-20T07:16:47;7.82;;;3.70;;
70199;SDS011;57587;55.688;37.600;2023-12-20T07:19:14;4.63;;;3.70;;
70199;SDS011;57587;55.688;37.600;2023-12-20T07:21:42;5.90;;;4.40;;
70199;SDS011;57587;55.688;37.600;2023-12-20T07:24:09;4.80;;;3.72;;
70199;SDS011;57587;55.688;37.600;2023-12-20T07:26:36;6.60;;;4.15;;
70199;SDS011;57587;55.688;37.600;2023-12-20T07:29:04;8.52;;;4.35;;
70199;SDS011;57587;55.688;37.600;2023-12-20T07:31:32;5.77;;;4.20;;
70199;SDS011;57587;55.688;37.600;2023-12-20T07:33:59;5.53;;;4.07;;
70199;SDS011;57587;55.688;37.600;2023-12-20T07:36:26;4.88;;;3.40;;
70199;SDS011;57587;55.688;37.600;2023-12-20T07:38:53;5.60;;;3.95;;
70199;SDS011;57587;55.688;37.600;2023-12-20T07:41:21;8.90;;;3.45;;
70199;SDS011;57587;55.688;37.600;2023-12-20T07:43:48;7.07;;;3.43;;
70199;SDS011;57587;55.688;37.600;2023-12-20T07:46:16;5.32;;;3.17;;
70199;SDS011;57587;55.688;37.600;2023-12-20T07:48:43;5.60;;;3.67;;
70199;SDS011;57587;55.688;37.600;2023-12-20T07:51:12;4.38;;;3.33;;
70199;SDS011;57587;55.688;37.600;2023-12-20T07:53:39;6.60;;;3.25;;
70199;SDS011;57587;55.688;37.600;2023-12-20T07:58:46;6.13;;;3.05;;
70199;SDS011;57587;55.688;37.600;2023-12-20T08:01:19;4.53;;;2.60;;
70199;SDS011;57587;55.688;37.600;2023-12-20T08:03:48;6.75;;;3.63;;
70199;SDS011;57587;55.688;37.600;2023-12-20T08:06:16;5.72;;;3.40;;
70199;SDS011;57587;55.688;37.600;2023-12-20T08:08:44;7.00;;;3.20;;
70199;SDS011;57587;55.688;37.600;2023-12-20T08:11:20;4.53;;;3.08;;
70199;SDS011;57587;55.688;37.600;2023-12-20T08:13:47;4.93;;;2.92;;
70199;SDS011;57587;55.688;37.600;2023-12-20T08:16:15;5.38;;;3.20;;
70199;SDS011;57587;55.688;37.600;2023-12-20T08:18:44;5.72;;;3.40;;
70199;SDS011;57587;55.688;37.600;2023-12-20T08:21:11;8.37;;;3.63;;
70199;SDS011;57587;55.688;37.600;2023-12-20T08:23:38;6.20;;;3.30;;
70199;SDS011;57587;55.688;37.600;2023-12-20T08:26:08;6.63;;;3.40;;
70199;SDS011;57587;55.688;37.600;2023-12-20T08:28:36;6.75;;;3.33;;
70199;SDS011;57587;55.688;37.600;2023-12-20T08:31:04;5.35;;;3.10;;
70199;SDS011;57587;55.688;37.600;2023-12-20T08:33:31;5.73;;;3.27;;
70199;SDS011;57587;55.688;37.600;2023-12-20T08:35:58;8.32;;;3.50;;
70199;SDS011;57587;55.688;37.600;2023-12-20T08:38:26;6.63;;;3.35;;
70199;SDS011;57587;55.688;37.600;2023-12-20T08:40:53;5.80;;;3.67;;
70199;SDS011;57587;55.688;37.600;2023-12-20T08:43:20;7.18;;;3.25;;
70199;SDS011;57587;55.688;37.600;2023-12-20T08:45:47;7.40;;;3.70;;
70199;SDS011;57587;55.688;37.600;2023-12-20T08:48:14;7.25;;;3.63;;
70199;SDS011;57587;55.688;37.600;2023-12-20T08:50:41;5.13;;;3.40;;
70199;SDS011;57587;55.688;37.600;2023-12-20T08:53:08;5.78;;;3.42;;
70199;SDS011;57587;55.688;37.600;2023-12-20T08:55:36;8.65;;;3.63;;
70199;SDS011;57587;55.688;37.600;2023-12-20T08:58:03;7.17;;;3.43;;
70199;SDS011;57587;55.688;37.600;2023-12-20T09:00:30;6.65;;;3.47;;
70199;SDS011;57587;55.688;37.600;2023-12-20T09:02:57;7.40;;;4.10;;
70199;SDS011;57587;55.688;37.600;2023-12-20T09:05:24;6.00;;;3.25;;
70199;SDS011;57587;55.688;37.600;2023-12-20T09:07:52;5.90;;;3.90;;
70199;SDS011;57587;55.688;37.600;2023-12-20T09:10:19;5.90;;;4.00;;
70199;SDS011;57587;55.688;37.600;2023-12-20T09:12:49;5.25;;;3.30;;
70199;SDS011;57587;55.688;37.600;2023-12-20T09:15:17;9.27;;;3.92;;
70199;SDS011;57587;55.688;37.600;2023-12-20T09:17:44;5.90;;;3.72;;
70199;SDS011;57587;55.688;37.600;2023-12-20T09:20:12;6.13;;;3.63;;
70199;SDS011;57587;55.688;37.600;2023-12-20T09:22:40;5.37;;;3.30;;
70199;SDS011;57587;55.688;37.600;2023-12-20T09:25:09;5.78;;;3.92;;
70199;SDS011;57587;55.688;37.600;2023-12-20T09:27:38;7.97;;;4.45;;
70199;SDS011;57587;55.688;37.600;2023-12-20T09:30:05;6.45;;;4.32;;
70199;SDS011;57587;55.688;37.600;2023-12-20T09:32:33;6.78;;;3.97;;
70199;SDS011;57587;55.688;37.600;2023-12-20T09:35:02;7.20;;;3.90;;
70199;SDS011;57587;55.688;37.600;2023-12-20T09:37:30;5.47;;;3.83;;
70199;SDS011;57587;55.688;37.600;2023-12-20T09:39:57;7.72;;;4.10;;
70199;SDS011;57587;55.688;37.600;2023-12-20T09:45:07;5.82;;;3.92;;
70199;SDS011;57587;55.688;37.600;2023-12-20T09:47:36;5.67;;;3.43;;
70199;SDS011;57587;55.688;37.600;2023-12-20T09:50:03;6.68;;;3.95;;
70199;SDS011;57587;55.688;37.600;2023-12-20T09:52:32;5.57;;;3.80;;
70199;SDS011;57587;55.688;37.600;2023-12-20T09:55:01;6.68;;;3.55;;
70199;SDS011;57587;55.688;37.600;2023-12-20T09:57:32;4.80;;;3.13;;
70199;SDS011;57587;55.688;37.600;2023-12-20T10:00:00;5.17;;;3.27;;
70199;SDS011;57587;55.688;37.600;2023-12-20T10:02:38;5.40;;;3.13;;
70199;SDS011;57587;55.688;37.600;2023-12-20T10:08:31;5.68;;;3.55;;
70199;SDS011;57587;55.688;37.600;2023-12-20T10:11:00;4.20;;;3.15;;
70199;SDS011;57587;55.688;37.600;2023-12-20T10:13:30;4.43;;;3.07;;
70199;SDS011;57587;55.688;37.600;2023-12-20T10:15:57;4.32;;;3.08;;
70199;SDS011;57587;55.688;37.600;2023-12-20T10:18:24;4.88;;;3.38;;
70199;SDS011;57587;55.688;37.600;2023-12-20T10:21:05;4.50;;;2.83;;
70199;SDS011;57587;55.688;37.600;2023-12-20T10:23:34;5.18;;;3.20;;
70199;SDS011;57587;55.688;37.600;2023-12-20T10:26:01;4.27;;;2.80;;
70199;SDS011;57587;55.688;37.600;2023-12-20T10:28:33;4.85;;;3.00;;
70199;SDS011;57587;55.688;37.600;2023-12-20T10:31:01;3.85;;;2.60;;
70199;SDS011;57587;55.688;37.600;2023-12-20T10:33:29;4.68;;;3.10;;
70199;SDS011;57587;55.688;37.600;2023-12-20T10:35:59;3.92;;;2.85;;
70199;SDS011;57587;55.688;37.600;2023-12-20T10:38:27;5.37;;;2.97;;
70199;SDS011;57587;55.688;37.600;2023-12-20T10:40:57;4.10;;;2.72;;
70199;SDS011;57587;55.688;37.600;2023-12-20T10:43:28;3.95;;;2.63;;
70199;SDS011;57587;55.688;37.600;2023-12-20T10:45:58;4.80;;;2.60;;
70199;SDS011;57587;55.688;37.600;2023-12-20T10:48:26;6.20;;;2.85;;
70199;SDS011;57587;55.688;37.600;2023-12-20T10:50:57;4.63;;;2.73;;
70199;SDS011;57587;55.688;37.600;2023-12-20T10:53:25;6.20;;;3.00;;
70199;SDS011;57587;55.688;37.600;2023-12-20T10:55:52;4.40;;;3.00;;
70199;SDS011;57587;55.688;37.600;2023-12-20T10:58:24;4.78;;;2.90;;
70199;SDS011;57587;55.688;37.600;2023-12-20T11:00:56;4.95;;;2.80;;
70199;SDS011;57587;55.688;37.600;2023-12-20T11:03:31;5.50;;;2.63;;
70199;SDS011;57587;55.688;37.600;2023-12-20T11:06:03;5.55;;;3.22;;
70199;SDS011;57587;55.688;37.600;2023-12-20T11:08:45;5.60;;;2.80;;
70199;SDS011;57587;55.688;37.600;2023-12-20T11:11:27;4.47;;;3.15;;
70199;SDS011;57587;55.688;37.600;2023-12-20T11:14:05;6.55;;;2.97;;
70199;SDS011;57587;55.688;37.600;2023-12-20T11:16:38;4.53;;;3.00;;
70199;SDS011;57587;55.688;37.600;2023-12-20T11:19:17;4.78;;;3.60;;
70199;SDS011;57587;55.688;37.600;2023-12-20T11:21:45;4.70;;;3.20;;
70199;SDS011;57587;55.688;37.600;2023-12-20T11:24:14;4.72;;;3.22;;
70199;SDS011;57587;55.688;37.600;2023-12-20T11:26:46;5.53;;;3.67;;
70199;SDS011;57587;55.688;37.600;2023-12-20T11:29:58;4.33;;;2.67;;
70199;SDS011;57587;55.688;37.600;2023-12-20T11:32:28;3.58;;;2.45;;
70199;SDS011;57587;55.688;37.600;2023-12-20T11:34:55;6.25;;;2.75;;
70199;SDS011;57587;55.688;37.600;2023-12-20T11:37:28;5.28;;;3.03;;
70199;SDS011;57587;55.688;37.600;2023-12-20T11:40:06;5.53;;;2.70;;
70199;SDS011;57587;55.688;37.600;2023-12-20T11:42:40;4.77;;;3.07;;
70199;SDS011;57587;55.688;37.600;2023-12-20T11:45:09;4.55;;;3.03;;
70199;SDS011;57587;55.688;37.600;2023-12-20T11:47:44;4.90;;;2.63;;
70199;SDS011;57587;55.688;37.600;2023-12-20T11:50:14;7.78;;;2.75;;
70199;SDS011;57587;55.688;37.600;2023-12-20T11:52:41;4.30;;;2.70;;
70199;SDS011;57587;55.688;37.600;2023-12-20T11:55:09;4.53;;;3.20;;
70199;SDS011;57587;55.688;37.600;2023-12-20T11:57:36;7.30;;;3.25;;
70199;SDS011;57587;55.688;37.600;2023-12-20T12:00:05;6.25;;;3.10;;
70199;SDS011;57587;55.688;37.600;2023-12-20T12:02:39;4.00;;;2.88;;
70199;SDS011;57587;55.688;37.600;2023-12-20T12:05:07;5.22;;;3.67;;
70199;SDS011;57587;55.688;37.600;2023-12-20T12:07:35;6.10;;;3.80;;
70199;SDS011;57587;55.688;37.600;2023-12-20T12:10:03;6.18;;;3.67;;
70199;SDS011;57587;55.688;37.600;2023-12-20T12:12:30;5.72;;;3.30;;
70199;SDS011;57587;55.688;37.600;2023-12-20T12:14:59;4.25;;;3.20;;
70199;SDS011;57587;55.688;37.600;2023-12-20T12:17:29;5.75;;;3.28;;
70199;SDS011;57587;55.688;37.600;2023-12-20T12:20:03;7.57;;;3.37;;
70199;SDS011;57587;55.688;37.600;2023-12-20T12:22:32;4.65;;;3.10;;
70199;SDS011;57587;55.688;37.600;2023-12-20T12:25:08;6.28;;;3.72;;
70199;SDS011;57587;55.688;37.600;2023-12-20T12:27:41;5.63;;;3.20;;
70199;SDS011;57587;55.688;37.600;2023-12-20T12:30:10;5.93;;;3.05;;
70199;SDS011;57587;55.688;37.600;2023-12-20T12:32:40;5.67;;;2.90;;
70199;SDS011;57587;55.688;37.600;2023-12-20T12:35:08;4.80;;;2.88;;
70199;SDS011;57587;55.688;37.600;2023-12-20T12:37:37;5.15;;;2.95;;
70199;SDS011;57587;55.688;37.600;2023-12-20T12:40:07;5.07;;;3.30;;
70199;SDS011;57587;55.688;37.600;2023-12-20T12:42:37;6.35;;;3.10;;
70199;SDS011;57587;55.688;37.600;2023-12-20T12:45:05;4.80;;;3.00;;
70199;SDS011;57587;55.688;37.600;2023-12-20T12:47:36;4.53;;;2.85;;
70199;SDS011;57587;55.688;37.600;2023-12-20T12:50:03;6.18;;;3.08;;
70199;SDS011;57587;55.688;37.600;2023-12-20T12:52:32;5.25;;;3.67;;
70199;SDS011;57587;55.688;37.600;2023-12-20T12:54:59;7.72;;;3.70;;
70199;SDS011;57587;55.688;37.600;2023-12-20T12:57:26;5.10;;;3.27;;
70199;SDS011;57587;55.688;37.600;2023-12-20T12:59:53;5.35;;;3.28;;
70199;SDS011;57587;55.688;37.600;2023-12-20T13:02:21;5.50;;;3.08;;
70199;SDS011;57587;55.688;37.600;2023-12-20T13:04:48;4.57;;;3.38;;
70199;SDS011;57587;55.688;37.600;2023-12-20T13:07:15;6.25;;;3.33;;
70199;SDS011;57587;55.688;37.600;2023-12-20T13:09:43;4.20;;;3.20;;
70199;SDS011;57587;55.688;37.600;2023-12-20T13:12:10;4.30;;;2.92;;
70199;SDS011;57587;55.688;37.600;2023-12-20T13:14:37;5.53;;;2.97;;
70199;SDS011;57587;55.688;37.600;2023-12-20T13:17:06;3.90;;;2.90;;
70199;SDS011;57587;55.688;37.600;2023-12-20T13:19:34;4.40;;;2.80;;
70199;SDS011;57587;55.688;37.600;2023-12-20T13:22:01;4.27;;;3.00;;
70199;SDS011;57587;55.688;37.600;2023-12-20T13:24:29;4.28;;;3.25;;
70199;SDS011;57587;55.688;37.600;2023-12-20T13:26:56;4.32;;;2.78;;
70199;SDS011;57587;55.688;37.600;2023-12-20T13:29:24;4.38;;;3.05;;
70199;SDS011;57587;55.688;37.600;2023-12-20T13:31:54;6.10;;;2.88;;
70199;SDS011;57587;55.688;37.600;2023-12-20T13:34:21;5.53;;;2.60;;
70199;SDS011;57587;55.688;37.600;2023-12-20T13:36:49;3.83;;;3.20;;
70199;SDS011;57587;55.688;37.600;2023-12-20T13:39:17;5.40;;;3.15;;
70199;SDS011;57587;55.688;37.600;2023-12-20T13:41:45;3.85;;;2.83;;
70199;SDS011;57587;55.688;37.600;2023-12-20T13:44:12;5.38;;;2.80;;
70199;SDS011;57587;55.688;37.600;2023-12-20T13:46:40;4.93;;;3.00;;
70199;SDS011;57587;55.688;37.600;2023-12-20T13:49:08;3.85;;;3.03;;
70199;SDS011;57587;55.688;37.600;2023-12-20T13:51:35;4.47;;;3.08;;
70199;SDS011;57587;55.688;37.600;2023-12-20T13:54:02;4.45;;;2.75;;
70199;SDS011;57587;55.688;37.600;2023-12-20T13:56:30;4.15;;;2.70;;
70199;SDS011;57587;55.688;37.600;2023-12-20T13:59:00;5.63;;;2.83;;
70199;SDS011;57587;55.688;37.600;2023-12-20T14:01:27;4.00;;;2.70;;
70199;SDS011;57587;55.688;37.600;2023-12-20T14:03:55;5.45;;;2.80;;
70199;SDS011;57587;55.688;37.600;2023-12-20T14:06:22;5.07;;;3.08;;
70199;SDS011;57587;55.688;37.600;2023-12-20T14:08:49;4.32;;;2.88;;
70199;SDS011;57587;55.688;37.600;2023-12-20T14:11:16;5.43;;;3.50;;
70199;SDS011;57587;55.688;37.600;2023-12-20T14:13:44;4.85;;;2.97;;
70199;SDS011;57587;55.688;37.600;2023-12-20T14:16:11;4.43;;;3.28;;
70199;SDS011;57587;55.688;37.600;2023-12-20T14:18:39;6.82;;;3.20;;
70199;SDS011;57587;55.688;37.600;2023-12-20T14:21:06;4.63;;;3.60;;
70199;SDS011;57587;55.688;37.600;2023-12-20T14:23:34;6.63;;;3.23;;
70199;SDS011;57587;55.688;37.600;2023-12-20T14:26:01;3.50;;;2.50;;
70199;SDS011;57587;55.688;37.600;2023-12-20T14:28:29;6.65;;;2.75;;
70199;SDS011;57587;55.688;37.600;2023-12-20T14:30:56;4.35;;;3.00;;
70199;SDS011;57587;55.688;37.600;2023-12-20T14:33:24;4.57;;;2.50;;
70199;SDS011;57587;55.688;37.600;2023-12-20T14:35:51;4.57;;;3.07;;
70199;SDS011;57587;55.688;37.600;2023-12-20T14:38:19;4.10;;;2.92;;
70199;SDS011;57587;55.688;37.600;2023-12-20T14:40:46;4.55;;;2.75;;
70199;SDS011;57587;55.688;37.600;2023-12-20T14:43:13;4.18;;;2.83;;
70199;SDS011;57587;55.688;37.600;2023-12-20T14:45:40;3.92;;;2.92;;
70199;SDS011;57587;55.688;37.600;2023-12-20T14:48:07;6.27;;;3.03;;